createdAt,value
2022-10-05T00:02:34.319Z,99280.00
2022-10-05T00:05:36.090Z,99281.66
2022-10-05T00:08:37.920Z,99280.63
2022-10-05T00:11:39.735Z,99290.63
2022-10-05T00:14:41.911Z,99286.13
2022-10-05T00:17:43.941Z,99294.31
2022-10-05T00:20:47.131Z,99294.00
2022-10-05T00:23:49.720Z,99294.16
2022-10-05T00:26:56.920Z,99301.00
2022-10-05T00:30:14.155Z,99294.16
2022-10-05T00:33:17.362Z,99306.00
2022-10-05T00:36:19.402Z,99302.47
2022-10-05T00:39:21.191Z,99303.78
2022-10-05T00:42:51.658Z,99306.09
2022-10-05T00:46:07.713Z,99316.94
2022-10-05T00:49:17.483Z,99309.38
2022-10-05T00:52:37.207Z,99328.94
2022-10-05T00:56:07.419Z,99319.53
2022-10-05T00:59:29.077Z,99325.19
2022-10-05T01:02:35.826Z,99329.03
2022-10-05T01:06:03.167Z,99334.31
2022-10-05T01:10:06.587Z,99334.84
2022-10-05T01:13:48.037Z,99339.94
2022-10-05T01:17:07.724Z,99345.28
2022-10-05T01:20:15.271Z,99349.66
2022-10-05T01:23:34.105Z,99348.81
2022-10-05T01:26:54.882Z,99354.84
2022-10-05T01:30:06.612Z,99350.88
2022-10-05T01:33:44.018Z,99351.63
2022-10-05T01:37:16.559Z,99355.66
2022-10-05T01:40:21.342Z,99353.50
2022-10-05T01:43:42.168Z,99361.75
2022-10-05T01:46:50.534Z,99353.25
2022-10-05T01:50:12.245Z,99353.63
2022-10-05T01:53:32.064Z,99348.81
2022-10-05T01:56:43.269Z,99354.00
2022-10-05T02:00:04.011Z,99357.06
2022-10-05T02:03:24.669Z,99361.09
2022-10-05T02:06:33.123Z,99355.44
2022-10-05T02:09:45.207Z,99357.63
2022-10-05T02:12:50.548Z,99363.66
2022-10-05T02:16:01.658Z,99363.88
2022-10-05T02:19:27.433Z,99357.00
2022-10-05T02:22:38.245Z,99365.91
2022-10-05T02:25:46.165Z,99363.41
2022-10-05T02:29:02.397Z,99375.13
2022-10-05T02:32:10.271Z,99368.63
2022-10-05T02:35:16.063Z,99375.66
2022-10-05T02:38:32.620Z,99375.88
2022-10-05T02:41:46.004Z,99379.22
2022-10-05T02:45:26.514Z,99379.44
2022-10-05T02:48:38.814Z,99384.47
2022-10-05T02:51:48.003Z,99380.78
2022-10-05T02:55:15.236Z,99391.81
2022-10-05T02:58:23.823Z,99392.84
2022-10-05T03:01:40.784Z,99393.69
2022-10-05T03:04:54.612Z,99390.69
2022-10-05T03:07:57.242Z,99403.75
2022-10-05T03:11:33.530Z,99407.09
2022-10-05T03:15:06.365Z,99402.59
2022-10-05T03:18:08.733Z,99411.94
2022-10-05T03:21:36.174Z,99408.78
2022-10-05T03:24:53.719Z,99412.63
2022-10-05T03:28:21.795Z,99412.78
2022-10-05T03:31:30.251Z,99412.81
2022-10-05T03:34:37.811Z,99406.94
2022-10-05T03:37:45.825Z,99421.41
2022-10-05T03:40:55.925Z,99414.97
2022-10-05T03:44:21.329Z,99425.69
2022-10-05T03:47:30.003Z,99421.69
2022-10-05T03:50:41.809Z,99429.72
2022-10-05T03:53:57.354Z,99443.94
2022-10-05T03:57:10.559Z,99443.63
2022-10-05T04:00:16.272Z,99448.63
2022-10-05T04:03:35.265Z,99456.19
2022-10-05T04:06:49.506Z,99457.69
2022-10-05T04:09:54.651Z,99456.53
2022-10-05T04:13:10.738Z,99465.56
2022-10-05T04:16:25.043Z,99470.97
2022-10-05T04:19:45.305Z,99475.31
2022-10-05T04:23:04.997Z,99485.72
2022-10-05T04:26:16.604Z,99485.72
2022-10-05T04:29:36.483Z,99488.44
2022-10-05T04:32:45.798Z,99487.94
2022-10-05T04:36:08.887Z,99487.78
2022-10-05T04:39:23.801Z,99486.63
2022-10-05T04:42:36.702Z,99495.50
2022-10-05T04:46:18.528Z,99498.22
2022-10-05T04:49:32.509Z,99505.25
2022-10-05T04:53:22.484Z,99508.50
2022-10-05T04:56:34.125Z,99504.47
2022-10-05T05:00:01.900Z,99511.88
2022-10-05T05:03:45.262Z,99496.16
2022-10-05T05:06:54.374Z,99501.16
2022-10-05T05:10:18.358Z,99510.38
2022-10-05T05:13:45.150Z,99512.56
2022-10-05T05:17:14.108Z,99517.59
2022-10-05T05:20:22.409Z,99520.47
2022-10-05T05:23:43.497Z,99522.34
2022-10-05T05:27:23.660Z,99531.88
2022-10-05T05:30:31.710Z,99526.19
2022-10-05T05:33:50.805Z,99527.38
2022-10-05T05:36:55.719Z,99539.28
2022-10-05T05:40:04.002Z,99534.28
2022-10-05T05:43:46.346Z,99541.31
2022-10-05T05:47:04.523Z,99543.69
2022-10-05T05:50:13.138Z,99529.31
2022-10-05T05:53:22.055Z,99533.00
2022-10-05T05:56:32.652Z,99529.50
2022-10-05T05:59:55.719Z,99538.56
2022-10-05T06:03:24.381Z,99539.72
2022-10-05T06:06:32.218Z,99543.75
2022-10-05T06:09:43.385Z,99542.03
2022-10-05T06:13:05.047Z,99545.97
2022-10-05T06:16:31.871Z,99555.03
2022-10-05T06:19:37.190Z,99564.44
2022-10-05T06:22:44.781Z,99573.16
2022-10-05T06:26:09.842Z,99564.38
2022-10-05T06:29:22.827Z,99566.22
2022-10-05T06:32:55.412Z,99570.16
2022-10-05T06:36:40.127Z,99566.41
2022-10-05T06:40:21.498Z,99560.97
2022-10-05T06:43:48.932Z,99561.19
2022-10-05T06:47:16.153Z,99569.59
2022-10-05T06:51:05.560Z,99575.94
2022-10-05T06:54:36.623Z,99578.97
2022-10-05T06:58:01.541Z,99583.22
2022-10-05T07:01:26.911Z,99579.66
2022-10-05T07:04:54.568Z,99588.38
2022-10-05T07:08:20.964Z,99591.47
2022-10-05T07:11:28.481Z,99588.47
2022-10-05T07:14:34.719Z,99591.72
2022-10-05T07:18:07.472Z,99600.59
2022-10-05T07:21:09.235Z,99601.84
2022-10-05T07:24:13.977Z,99607.03
2022-10-05T07:27:22.878Z,99602.34
2022-10-05T07:30:26.623Z,99616.06
2022-10-05T07:34:08.107Z,99621.38
2022-10-05T07:37:36.189Z,99627.88
2022-10-05T07:40:45.866Z,99622.78
2022-10-05T07:44:11.647Z,99626.66
2022-10-05T07:47:30.337Z,99625.50
2022-10-05T07:51:06.632Z,99626.13
2022-10-05T07:54:31.020Z,99631.25
2022-10-05T07:57:50.605Z,99633.13
2022-10-05T08:01:20.242Z,99640.56
2022-10-05T08:04:42.011Z,99639.81
2022-10-05T08:07:52.276Z,99649.25
2022-10-05T08:11:14.486Z,99652.28
2022-10-05T08:14:28.671Z,99656.13
2022-10-05T08:17:53.085Z,99655.47
2022-10-05T08:20:58.726Z,99651.72
2022-10-05T08:24:11.065Z,99652.25
2022-10-05T08:27:16.583Z,99654.94
2022-10-05T08:30:19.417Z,99649.03
2022-10-05T08:33:21.355Z,99661.53
2022-10-05T08:36:39.123Z,99655.81
2022-10-05T08:40:06.743Z,99663.25
2022-10-05T08:43:35.044Z,99661.72
2022-10-05T08:47:06.599Z,99669.13
2022-10-05T08:50:25.942Z,99670.81
2022-10-05T08:53:45.613Z,99666.00
2022-10-05T08:57:17.402Z,99670.13
2022-10-05T09:00:31.555Z,99677.03
2022-10-05T09:04:11.058Z,99668.97
2022-10-05T09:07:36.835Z,99672.72
2022-10-05T09:10:57.207Z,99672.09
2022-10-05T09:14:07.394Z,99682.97
2022-10-05T09:17:39.353Z,99678.19
2022-10-05T09:21:10.549Z,99686.19
2022-10-05T09:24:12.387Z,99685.22
2022-10-05T09:27:21.167Z,99684.38
2022-10-05T09:30:32.095Z,99686.31
2022-10-05T09:33:43.356Z,99692.59
2022-10-05T09:37:06.981Z,99696.69
2022-10-05T09:40:17.420Z,99707.81
2022-10-05T09:43:44.249Z,99708.47
2022-10-05T09:46:58.186Z,99719.94
2022-10-05T09:50:32.146Z,99722.16
2022-10-05T09:54:06.840Z,99719.16
2022-10-05T09:57:48.183Z,99717.94
2022-10-05T10:01:32.574Z,99723.44
2022-10-05T10:04:53.334Z,99714.66
2022-10-05T10:08:27.848Z,99716.44
2022-10-05T10:11:53.582Z,99715.72
2022-10-05T10:15:33.170Z,99699.16
2022-10-05T10:19:03.670Z,99703.84
2022-10-05T10:22:43.731Z,99714.19
2022-10-05T10:26:31.542Z,99717.97
2022-10-05T10:29:39.771Z,99718.50
2022-10-05T10:33:11.887Z,99733.16
2022-10-05T10:36:48.025Z,99731.69
2022-10-05T10:40:26.179Z,99729.31
2022-10-05T10:43:39.322Z,99722.97
2022-10-05T10:46:59.772Z,99728.94
2022-10-05T10:50:29.158Z,99723.44
2022-10-05T10:54:09.295Z,99728.59
2022-10-05T10:57:22.106Z,99741.63
2022-10-05T11:00:33.599Z,99739.22
2022-10-05T11:03:35.398Z,99740.97
2022-10-05T11:07:04.382Z,99749.88
2022-10-05T11:10:26.073Z,99749.53
2022-10-05T11:13:44.185Z,99747.69
2022-10-05T11:17:10.930Z,99745.84
2022-10-05T11:20:49.799Z,99757.97
2022-10-05T11:24:17.790Z,99754.75
2022-10-05T11:27:34.204Z,99756.09
2022-10-05T11:30:50.526Z,99752.41
2022-10-05T11:34:20.394Z,99761.28
2022-10-05T11:38:01.088Z,99760.47
2022-10-05T11:41:51.265Z,99770.56
2022-10-05T11:45:24.216Z,99776.41
2022-10-05T11:48:39.027Z,99782.44
2022-10-05T11:52:08.900Z,99783.34
2022-10-05T11:55:43.967Z,99785.56
2022-10-05T11:58:57.119Z,99795.47
2022-10-05T12:02:31.360Z,99801.84
2022-10-05T12:06:07.670Z,99806.03
2022-10-05T12:09:21.707Z,99807.38
2022-10-05T12:12:29.704Z,99815.78
2022-10-05T12:15:51.215Z,99816.47
2022-10-05T12:19:27.305Z,99826.06
2022-10-05T12:22:43.779Z,99832.44
2022-10-05T12:25:59.385Z,99831.97
2022-10-05T12:29:10.241Z,99841.22
2022-10-05T12:32:34.288Z,99844.72
2022-10-05T12:35:55.692Z,99851.63
2022-10-05T12:39:10.098Z,99852.63
2022-10-05T12:42:11.857Z,99854.47
2022-10-05T12:45:34.494Z,99855.47
2022-10-05T12:48:50.228Z,99862.34
2022-10-05T12:52:01.043Z,99870.94
2022-10-05T12:55:37.992Z,99861.50
2022-10-05T12:59:14.354Z,99864.88
2022-10-05T13:02:19.167Z,99870.28
2022-10-05T13:05:58.967Z,99865.25
2022-10-05T13:09:42.555Z,99875.34
2022-10-05T13:13:10.589Z,99874.50
2022-10-05T13:16:54.709Z,99885.59
2022-10-05T13:20:12.403Z,99883.56
2022-10-05T13:23:31.471Z,99887.94
2022-10-05T13:26:41.068Z,99879.03
2022-10-05T13:29:58.411Z,99879.72
2022-10-05T13:33:15.512Z,99882.06
2022-10-05T13:36:57.931Z,99887.09
2022-10-05T13:40:03.115Z,99888.09
2022-10-05T13:43:40.340Z,99894.78
2022-10-05T13:46:56.373Z,99897.97
2022-10-05T13:50:15.862Z,99911.78
2022-10-05T13:53:48.088Z,99914.63
2022-10-05T13:56:56.741Z,99913.59
2022-10-05T14:00:13.565Z,99912.56
2022-10-05T14:03:30.692Z,99914.19
2022-10-05T14:06:37.269Z,99914.47
2022-10-05T14:09:48.391Z,99913.09
2022-10-05T14:12:54.571Z,99920.34
2022-10-05T14:16:21.220Z,99914.50
2022-10-05T14:19:31.829Z,99917.66
2022-10-05T14:22:41.661Z,99915.63
2022-10-05T14:25:53.696Z,99910.34
2022-10-05T14:29:00.769Z,99912.41
2022-10-05T14:32:14.598Z,99912.78
2022-10-05T14:35:22.172Z,99910.88
2022-10-05T14:38:29.835Z,99922.09
2022-10-05T14:41:37.377Z,99920.03
2022-10-05T14:44:39.367Z,99922.13
2022-10-05T14:47:51.743Z,99920.97
2022-10-05T14:51:03.991Z,99923.28
2022-10-05T14:54:33.430Z,99927.25
2022-10-05T14:57:53.996Z,99935.47
2022-10-05T15:01:11.245Z,99946.13
2022-10-05T15:04:39.501Z,99950.88
2022-10-05T15:07:47.914Z,99957.25
2022-10-05T15:10:59.712Z,99964.91
2022-10-05T15:14:06.357Z,99971.25
2022-10-05T15:17:18.305Z,99974.09
2022-10-05T15:20:30.734Z,99975.16
2022-10-05T15:23:41.061Z,99985.41
2022-10-05T15:26:54.338Z,99989.88
2022-10-05T15:30:13.794Z,99989.88
2022-10-05T15:33:29.975Z,99989.63
2022-10-05T15:36:59.386Z,99995.00
2022-10-05T15:40:28.082Z,99982.28
2022-10-05T15:43:46.020Z,99998.38
2022-10-05T15:46:56.516Z,99988.34
2022-10-05T15:50:15.604Z,99998.59
2022-10-05T15:53:42.046Z,99993.09
2022-10-05T15:56:56.683Z,99999.06
2022-10-05T16:00:12.226Z,100003.72
2022-10-05T16:03:23.518Z,100007.00
2022-10-05T16:07:19.493Z,99998.19
2022-10-05T16:10:24.134Z,100005.06
2022-10-05T16:13:44.047Z,100002.31
2022-10-05T16:17:11.147Z,99997.34
2022-10-05T16:20:35.891Z,100002.47
2022-10-05T16:24:01.308Z,100006.56
2022-10-05T16:27:12.442Z,99994.19
2022-10-05T16:30:23.746Z,99995.31
2022-10-05T16:33:58.465Z,99999.28
2022-10-05T16:37:28.293Z,99999.16
2022-10-05T16:41:03.825Z,99994.69
2022-10-05T16:44:38.611Z,99996.25
2022-10-05T16:48:15.887Z,100005.88
2022-10-05T16:52:03.062Z,100013.63
2022-10-05T16:55:14.035Z,99997.31
2022-10-05T16:58:34.642Z,100001.41
2022-10-05T17:02:01.801Z,100000.16
2022-10-05T17:05:28.845Z,100007.06
2022-10-05T17:09:07.217Z,100006.50
2022-10-05T17:12:57.760Z,100008.91
2022-10-05T17:16:27.947Z,100018.34
2022-10-05T17:19:54.641Z,100010.88
2022-10-05T17:23:19.354Z,100009.03
2022-10-05T17:26:59.330Z,100014.94
2022-10-05T17:30:32.958Z,100027.34
2022-10-05T17:33:55.237Z,100031.28
2022-10-05T17:37:20.324Z,100027.34
2022-10-05T17:40:39.427Z,100027.47
2022-10-05T17:44:13.786Z,100027.91
2022-10-05T17:47:36.794Z,100037.31
2022-10-05T17:51:07.239Z,100035.91
2022-10-05T17:54:50.794Z,100034.78
2022-10-05T17:57:53.694Z,100031.97
2022-10-05T18:00:59.367Z,100039.84
2022-10-05T18:04:27.019Z,100042.22
2022-10-05T18:07:30.110Z,100047.28
2022-10-05T18:10:35.625Z,100053.22
2022-10-05T18:13:52.094Z,100049.41
2022-10-05T18:17:14.517Z,100050.25
2022-10-05T18:20:39.860Z,100064.19
2022-10-05T18:23:59.974Z,100057.84
2022-10-05T18:27:37.298Z,100060.22
2022-10-05T18:31:27.025Z,100056.28
2022-10-05T18:34:40.008Z,100053.75
2022-10-05T18:38:13.353Z,100057.13
2022-10-05T18:41:45.674Z,100059.38
2022-10-05T18:45:02.489Z,100061.06
2022-10-05T18:48:22.546Z,100061.59
2022-10-05T18:51:40.036Z,100063.72
2022-10-05T18:55:21.981Z,100066.81
2022-10-05T18:58:56.595Z,100076.53
2022-10-05T19:02:17.283Z,100062.00
2022-10-05T19:05:53.198Z,100069.75
2022-10-05T19:09:19.462Z,100070.75
2022-10-05T19:12:58.232Z,100059.03
2022-10-05T19:16:25.736Z,100058.34
2022-10-05T19:19:49.647Z,100053.84
2022-10-05T19:23:25.577Z,100053.84
2022-10-05T19:27:25.999Z,100050.03
2022-10-05T19:30:48.946Z,100056.38
2022-10-05T19:34:15.708Z,100059.19
2022-10-05T19:37:45.785Z,100073.13
2022-10-05T19:41:12.974Z,100071.44
2022-10-05T19:45:03.794Z,100074.97
2022-10-05T19:48:36.357Z,100071.31
2022-10-05T19:51:49.791Z,100072.69
2022-10-05T19:55:24.117Z,100077.75
2022-10-05T19:58:28.402Z,100083.25
2022-10-05T20:01:34.782Z,100071.41
2022-10-05T20:04:42.152Z,100083.53
2022-10-05T20:07:43.998Z,100073.50
2022-10-05T20:11:03.423Z,100069.00
2022-10-05T20:14:06.778Z,100069.00
2022-10-05T20:17:44.472Z,100076.63
2022-10-05T20:20:48.643Z,100071.28
2022-10-05T20:24:09.584Z,100082.69
2022-10-05T20:27:41.337Z,100086.06
2022-10-05T20:30:43.113Z,100079.00
2022-10-05T20:33:44.862Z,100078.88
2022-10-05T20:36:47.383Z,100074.34
2022-10-05T20:39:51.443Z,100069.97
2022-10-05T20:42:53.299Z,100083.38
2022-10-05T20:45:56.800Z,100078.72
2022-10-05T20:48:58.609Z,100072.38
2022-10-05T20:52:00.912Z,100069.69
2022-10-05T20:55:05.420Z,100082.53
2022-10-05T20:58:09.028Z,100086.91
2022-10-05T21:01:19.986Z,100097.63
2022-10-05T21:04:24.608Z,100095.63
2022-10-05T21:07:26.500Z,100084.94
2022-10-05T21:10:28.205Z,100090.28
2022-10-05T21:13:29.987Z,100097.31
2022-10-05T21:16:31.860Z,100102.00
2022-10-05T21:19:38.488Z,100103.69
2022-10-05T21:22:40.491Z,100088.28
2022-10-05T21:25:42.264Z,100094.50
2022-10-05T21:28:44.140Z,100086.47
2022-10-05T21:31:46.174Z,100094.66
2022-10-05T21:34:47.989Z,100094.50
2022-10-05T21:37:49.881Z,100082.94
2022-10-05T21:40:51.705Z,100087.31
2022-10-05T21:43:53.685Z,100095.06
2022-10-05T21:46:56.632Z,100090.69
2022-10-05T21:49:59.920Z,100091.81
2022-10-05T21:53:04.361Z,100091.81
2022-10-05T21:56:12.661Z,100093.81
2022-10-05T21:59:18.758Z,100101.00
2022-10-05T22:02:20.536Z,100101.00
2022-10-05T22:05:22.869Z,100096.50
2022-10-05T22:08:27.656Z,100094.78
2022-10-05T22:11:29.828Z,100092.13
2022-10-05T22:14:32.201Z,100086.06
2022-10-05T22:17:34.023Z,100077.88
2022-10-05T22:20:35.857Z,100084.94
2022-10-05T22:23:38.915Z,100083.38
2022-10-05T22:26:43.861Z,100083.53
2022-10-05T22:29:46.210Z,100083.53
2022-10-05T22:32:47.981Z,100084.53
2022-10-05T22:35:49.884Z,100083.53
2022-10-05T22:38:51.657Z,100080.00
2022-10-05T22:41:53.492Z,100082.53
2022-10-05T22:44:55.332Z,100078.16
2022-10-05T22:47:57.120Z,100084.22
2022-10-05T22:51:00.139Z,100082.38
2022-10-05T22:54:01.962Z,100082.53
2022-10-05T22:57:03.760Z,100079.72
2022-10-05T23:00:06.925Z,100068.16
2022-10-05T23:03:08.753Z,100060.94
2022-10-05T23:06:13.505Z,100064.63
2022-10-05T23:09:15.704Z,100056.03
2022-10-05T23:12:17.547Z,100057.16
2022-10-05T23:15:19.334Z,100060.13
2022-10-05T23:18:21.116Z,100062.09
2022-10-05T23:21:25.532Z,100062.53
2022-10-05T23:24:27.262Z,100071.00
2022-10-05T23:27:29.020Z,100064.41
2022-10-05T23:30:31.155Z,100075.41
2022-10-05T23:33:34.310Z,100072.31
2022-10-05T23:36:36.105Z,100074.59
2022-10-05T23:39:37.838Z,100078.53
2022-10-05T23:42:41.083Z,100085.88
2022-10-05T23:45:47.062Z,100086.00
2022-10-05T23:48:50.424Z,100084.31
2022-10-05T23:51:52.252Z,100090.53
2022-10-05T23:54:54.189Z,100098.41
2022-10-05T23:57:55.959Z,100098.41
